sensor_id;sensor_type;location;lat;lon;timestamp;pressure;altitude;pressure_sealevel;temperature;humidity
56582;BME280;42463;52.214;21.238;2024-02-15T00:01:09;100926.89;;;7.96;48.94
56582;BME280;42463;52.214;21.238;2024-02-15T00:03:42;100930.17;;;7.96;48.99
56582;BME280;42463;52.214;21.238;2024-02-15T00:06:15;100928.65;;;7.91;48.97
56582;BME280;42463;52.214;21.238;2024-02-15T00:08:47;100930.93;;;7.95;48.98
56582;BME280;42463;52.214;21.238;2024-02-15T00:11:21;100929.30;;;7.97;49.05
56582;BME280;42463;52.214;21.238;2024-02-15T00:13:54;100929.84;;;7.95;49.05
56582;BME280;42463;52.214;21.238;2024-02-15T00:16:27;100927.59;;;7.94;49.11
56582;BME280;42463;52.214;21.238;2024-02-15T00:19:00;100926.36;;;7.95;49.27
56582;BME280;42463;52.214;21.238;2024-02-15T00:21:34;100926.16;;;7.93;48.98
56582;BME280;42463;52.214;21.238;2024-02-15T00:24:08;100926.31;;;7.91;49.23
56582;BME280;42463;52.214;21.238;2024-02-15T00:26:41;100926.96;;;7.89;49.36
56582;BME280;42463;52.214;21.238;2024-02-15T00:29:15;100926.97;;;7.89;49.34
56582;BME280;42463;52.214;21.238;2024-02-15T00:31:48;100927.06;;;7.91;49.22
56582;BME280;42463;52.214;21.238;2024-02-15T00:34:20;100921.53;;;7.92;49.55
56582;BME280;42463;52.214;21.238;2024-02-15T00:36:53;100920.77;;;7.93;49.41
56582;BME280;42463;52.214;21.238;2024-02-15T00:39:26;100923.14;;;7.93;49.54
56582;BME280;42463;52.214;21.238;2024-02-15T00:41:58;100923.48;;;7.92;49.84
56582;BME280;42463;52.214;21.238;2024-02-15T00:44:32;100928.69;;;7.91;49.82
56582;BME280;42463;52.214;21.238;2024-02-15T00:47:05;100928.42;;;7.88;49.75
56582;BME280;42463;52.214;21.238;2024-02-15T00:49:39;100924.65;;;7.84;49.96
56582;BME280;42463;52.214;21.238;2024-02-15T00:52:12;100927.46;;;7.85;50.07
56582;BME280;42463;52.214;21.238;2024-02-15T00:54:44;100924.59;;;7.82;49.92
56582;BME280;42463;52.214;21.238;2024-02-15T00:57:17;100922.33;;;7.79;49.85
56582;BME280;42463;52.214;21.238;2024-02-15T00:59:50;100921.95;;;7.77;49.88
56582;BME280;42463;52.214;21.238;2024-02-15T01:02:23;100922.08;;;7.76;49.90
56582;BME280;42463;52.214;21.238;2024-02-15T01:04:56;100918.72;;;7.74;50.01
56582;BME280;42463;52.214;21.238;2024-02-15T01:07:30;100916.77;;;7.74;50.03
56582;BME280;42463;52.214;21.238;2024-02-15T01:10:03;100914.30;;;7.73;50.06
56582;BME280;42463;52.214;21.238;2024-02-15T01:12:37;100909.14;;;7.70;50.20
56582;BME280;42463;52.214;21.238;2024-02-15T01:15:11;100916.31;;;7.67;50.25
56582;BME280;42463;52.214;21.238;2024-02-15T01:17:44;100909.67;;;7.66;50.30
56582;BME280;42463;52.214;21.238;2024-02-15T01:20:18;100910.34;;;7.67;50.26
56582;BME280;42463;52.214;21.238;2024-02-15T01:22:52;100910.35;;;7.65;50.10
56582;BME280;42463;52.214;21.238;2024-02-15T01:25:24;100908.23;;;7.65;50.39
56582;BME280;42463;52.214;21.238;2024-02-15T01:27:57;100908.39;;;7.65;50.39
56582;BME280;42463;52.214;21.238;2024-02-15T01:30:30;100911.42;;;7.65;50.35
56582;BME280;42463;52.214;21.238;2024-02-15T01:33:03;100908.48;;;7.66;50.24
56582;BME280;42463;52.214;21.238;2024-02-15T01:35:36;100908.36;;;7.64;50.30
56582;BME280;42463;52.214;21.238;2024-02-15T01:38:09;100910.14;;;7.60;50.35
56582;BME280;42463;52.214;21.238;2024-02-15T01:40:41;100907.65;;;7.57;50.47
56582;BME280;42463;52.214;21.238;2024-02-15T01:43:14;100904.92;;;7.55;50.62
56582;BME280;42463;52.214;21.238;2024-02-15T01:45:46;100903.65;;;7.53;50.41
56582;BME280;42463;52.214;21.238;2024-02-15T01:48:20;100896.07;;;7.51;50.50
56582;BME280;42463;52.214;21.238;2024-02-15T01:50:52;100897.08;;;7.50;50.65
56582;BME280;42463;52.214;21.238;2024-02-15T01:53:25;100898.53;;;7.50;50.80
56582;BME280;42463;52.214;21.238;2024-02-15T01:55:58;100895.77;;;7.52;50.87
56582;BME280;42463;52.214;21.238;2024-02-15T01:58:33;100893.80;;;7.54;50.84
56582;BME280;42463;52.214;21.238;2024-02-15T02:01:51;100890.30;;;7.55;50.95
56582;BME280;42463;52.214;21.238;2024-02-15T02:04:23;100886.55;;;7.56;50.94
56582;BME280;42463;52.214;21.238;2024-02-15T02:06:56;100885.29;;;7.58;50.80
56582;BME280;42463;52.214;21.238;2024-02-15T02:09:30;100883.48;;;7.61;50.89
56582;BME280;42463;52.214;21.238;2024-02-15T02:12:02;100878.15;;;7.61;50.67
56582;BME280;42463;52.214;21.238;2024-02-15T02:14:35;100877.77;;;7.61;50.88
56582;BME280;42463;52.214;21.238;2024-02-15T02:17:17;100877.89;;;7.62;50.89
56582;BME280;42463;52.214;21.238;2024-02-15T02:19:51;100880.23;;;7.62;50.78
56582;BME280;42463;52.214;21.238;2024-02-15T02:22:24;100881.34;;;7.62;50.87
56582;BME280;42463;52.214;21.238;2024-02-15T02:25:03;100880.25;;;7.63;50.86
56582;BME280;42463;52.214;21.238;2024-02-15T02:27:38;100880.35;;;7.61;50.66
56582;BME280;42463;52.214;21.238;2024-02-15T02:30:16;100877.61;;;7.61;50.82
56582;BME280;42463;52.214;21.238;2024-02-15T02:32:50;100873.48;;;7.62;50.92
56582;BME280;42463;52.214;21.238;2024-02-15T02:35:24;100869.08;;;7.63;51.06
56582;BME280;42463;52.214;21.238;2024-02-15T02:37:56;100873.17;;;7.64;50.97
56582;BME280;42463;52.214;21.238;2024-02-15T02:40:28;100870.07;;;7.63;50.85
56582;BME280;42463;52.214;21.238;2024-02-15T02:43:00;100869.55;;;7.65;50.89
56582;BME280;42463;52.214;21.238;2024-02-15T02:45:33;100876.73;;;7.66;51.13
56582;BME280;42463;52.214;21.238;2024-02-15T02:48:07;100874.05;;;7.67;50.99
56582;BME280;42463;52.214;21.238;2024-02-15T02:50:40;100875.14;;;7.67;50.92
56582;BME280;42463;52.214;21.238;2024-02-15T02:53:13;100876.87;;;7.64;50.98
56582;BME280;42463;52.214;21.238;2024-02-15T02:55:46;100875.86;;;7.61;50.91
56582;BME280;42463;52.214;21.238;2024-02-15T02:58:18;100879.83;;;7.60;50.76
56582;BME280;42463;52.214;21.238;2024-02-15T03:00:54;100879.39;;;7.58;50.92
56582;BME280;42463;52.214;21.238;2024-02-15T03:03:27;100879.10;;;7.57;51.02
56582;BME280;42463;52.214;21.238;2024-02-15T03:06:00;100878.23;;;7.57;51.02
56582;BME280;42463;52.214;21.238;2024-02-15T03:08:33;100879.84;;;7.58;51.09
56582;BME280;42463;52.214;21.238;2024-02-15T03:11:06;100878.98;;;7.62;51.06
56582;BME280;42463;52.214;21.238;2024-02-15T03:13:38;100878.39;;;7.66;51.24
56582;BME280;42463;52.214;21.238;2024-02-15T03:16:11;100875.86;;;7.66;50.99
56582;BME280;42463;52.214;21.238;2024-02-15T03:18:43;100878.86;;;7.61;50.93
56582;BME280;42463;52.214;21.238;2024-02-15T03:21:15;100880.16;;;7.60;51.25
56582;BME280;42463;52.214;21.238;2024-02-15T03:23:49;100885.62;;;7.58;51.22
56582;BME280;42463;52.214;21.238;2024-02-15T03:26:30;100885.95;;;7.58;51.33
56582;BME280;42463;52.214;21.238;2024-02-15T03:29:09;100886.83;;;7.57;51.39
56582;BME280;42463;52.214;21.238;2024-02-15T03:31:42;100888.36;;;7.58;51.18
56582;BME280;42463;52.214;21.238;2024-02-15T03:34:16;100890.95;;;7.60;51.34
56582;BME280;42463;52.214;21.238;2024-02-15T03:36:52;100886.41;;;7.61;51.36
56582;BME280;42463;52.214;21.238;2024-02-15T03:39:25;100885.83;;;7.59;51.32
56582;BME280;42463;52.214;21.238;2024-02-15T03:42:00;100882.55;;;7.57;51.34
56582;BME280;42463;52.214;21.238;2024-02-15T03:44:32;100885.41;;;7.58;51.47
56582;BME280;42463;52.214;21.238;2024-02-15T03:47:05;100884.74;;;7.58;51.51
56582;BME280;42463;52.214;21.238;2024-02-15T03:49:38;100888.67;;;7.59;51.32
56582;BME280;42463;52.214;21.238;2024-02-15T03:52:11;100884.71;;;7.57;51.38
56582;BME280;42463;52.214;21.238;2024-02-15T03:54:43;100888.20;;;7.54;51.33
56582;BME280;42463;52.214;21.238;2024-02-15T03:57:16;100889.44;;;7.54;51.64
56582;BME280;42463;52.214;21.238;2024-02-15T03:59:49;100890.48;;;7.57;51.44
56582;BME280;42463;52.214;21.238;2024-02-15T04:02:25;100883.35;;;7.57;51.52
56582;BME280;42463;52.214;21.238;2024-02-15T04:04:59;100885.45;;;7.58;51.51
56582;BME280;42463;52.214;21.238;2024-02-15T04:07:32;100879.76;;;7.55;51.47
56582;BME280;42463;52.214;21.238;2024-02-15T04:10:07;100881.25;;;7.55;51.57
56582;BME280;42463;52.214;21.238;2024-02-15T04:12:40;100880.90;;;7.56;51.63
56582;BME280;42463;52.214;21.238;2024-02-15T04:15:14;100878.54;;;7.56;51.51
56582;BME280;42463;52.214;21.238;2024-02-15T04:17:48;100875.96;;;7.55;51.68
56582;BME280;42463;52.214;21.238;2024-02-15T04:20:26;100874.05;;;7.56;51.53
56582;BME280;42463;52.214;21.238;2024-02-15T04:23:00;100874.27;;;7.56;51.58
56582;BME280;42463;52.214;21.238;2024-02-15T04:25:32;100874.38;;;7.56;51.55
56582;BME280;42463;52.214;21.238;2024-02-15T04:28:06;100873.52;;;7.56;51.66
56582;BME280;42463;52.214;21.238;2024-02-15T04:30:39;100875.06;;;7.54;51.68
56582;BME280;42463;52.214;21.238;2024-02-15T04:33:12;100873.17;;;7.52;51.71
56582;BME280;42463;52.214;21.238;2024-02-15T04:35:47;100877.33;;;7.52;51.75
56582;BME280;42463;52.214;21.238;2024-02-15T04:38:22;100874.69;;;7.51;51.62
56582;BME280;42463;52.214;21.238;2024-02-15T04:40:56;100874.38;;;7.48;51.88
56582;BME280;42463;52.214;21.238;2024-02-15T04:43:33;100878.08;;;7.48;51.85
56582;BME280;42463;52.214;21.238;2024-02-15T04:46:08;100876.29;;;7.48;51.72
56582;BME280;42463;52.214;21.238;2024-02-15T04:48:41;100879.48;;;7.49;51.83
56582;BME280;42463;52.214;21.238;2024-02-15T04:51:14;100880.80;;;7.50;52.00
56582;BME280;42463;52.214;21.238;2024-02-15T04:53:48;100876.92;;;7.51;51.93
56582;BME280;42463;52.214;21.238;2024-02-15T04:56:20;100884.94;;;7.52;51.89
56582;BME280;42463;52.214;21.238;2024-02-15T04:58:54;100883.38;;;7.54;51.97
56582;BME280;42463;52.214;21.238;2024-02-15T05:01:27;100881.79;;;7.55;51.85
56582;BME280;42463;52.214;21.238;2024-02-15T05:04:00;100885.77;;;7.51;51.77
56582;BME280;42463;52.214;21.238;2024-02-15T05:06:38;100886.37;;;7.49;51.73
56582;BME280;42463;52.214;21.238;2024-02-15T05:09:11;100882.17;;;7.49;51.84
56582;BME280;42463;52.214;21.238;2024-02-15T05:11:44;100881.55;;;7.49;51.86
56582;BME280;42463;52.214;21.238;2024-02-15T05:14:18;100882.50;;;7.50;51.91
56582;BME280;42463;52.214;21.238;2024-02-15T05:16:52;100885.30;;;7.48;51.80
56582;BME280;42463;52.214;21.238;2024-02-15T05:19:24;100886.24;;;7.45;51.87
56582;BME280;42463;52.214;21.238;2024-02-15T05:21:56;100884.81;;;7.43;52.02
56582;BME280;42463;52.214;21.238;2024-02-15T05:24:29;100885.60;;;7.39;51.96
56582;BME280;42463;52.214;21.238;2024-02-15T05:27:02;100887.48;;;7.38;52.03
56582;BME280;42463;52.214;21.238;2024-02-15T05:29:35;100887.27;;;7.37;52.07
56582;BME280;42463;52.214;21.238;2024-02-15T05:32:09;100890.12;;;7.40;52.26
56582;BME280;42463;52.214;21.238;2024-02-15T05:34:41;100894.11;;;7.44;52.19
56582;BME280;42463;52.214;21.238;2024-02-15T05:37:14;100888.25;;;7.44;52.29
56582;BME280;42463;52.214;21.238;2024-02-15T05:39:47;100891.42;;;7.46;52.03
56582;BME280;42463;52.214;21.238;2024-02-15T05:42:24;100893.83;;;7.47;52.25
56582;BME280;42463;52.214;21.238;2024-02-15T05:45:28;100893.40;;;7.48;52.13
56582;BME280;42463;52.214;21.238;2024-02-15T05:48:05;100893.10;;;7.49;52.13
56582;BME280;42463;52.214;21.238;2024-02-15T05:50:43;100893.75;;;7.51;52.20
56582;BME280;42463;52.214;21.238;2024-02-15T05:53:15;100895.45;;;7.52;52.10
56582;BME280;42463;52.214;21.238;2024-02-15T05:55:49;100897.96;;;7.49;52.11
56582;BME280;42463;52.214;21.238;2024-02-15T05:58:21;100900.16;;;7.49;52.13
56582;BME280;42463;52.214;21.238;2024-02-15T06:00:54;100903.05;;;7.50;52.12
56582;BME280;42463;52.214;21.238;2024-02-15T06:03:26;100905.59;;;7.51;52.14
56582;BME280;42463;52.214;21.238;2024-02-15T06:05:59;100903.91;;;7.53;52.27
56582;BME280;42463;52.214;21.238;2024-02-15T06:08:33;100905.52;;;7.53;52.18
56582;BME280;42463;52.214;21.238;2024-02-15T06:11:07;100908.37;;;7.50;52.09
56582;BME280;42463;52.214;21.238;2024-02-15T06:13:40;100907.73;;;7.51;52.12
56582;BME280;42463;52.214;21.238;2024-02-15T06:16:13;100912.58;;;7.50;52.19
56582;BME280;42463;52.214;21.238;2024-02-15T06:18:47;100912.00;;;7.49;51.89
56582;BME280;42463;52.214;21.238;2024-02-15T06:21:18;100914.52;;;7.50;52.15
56582;BME280;42463;52.214;21.238;2024-02-15T06:23:51;100919.29;;;7.51;52.20
56582;BME280;42463;52.214;21.238;2024-02-15T06:26:24;100921.12;;;7.51;52.37
56582;BME280;42463;52.214;21.238;2024-02-15T06:28:57;100918.79;;;7.52;52.42
56582;BME280;42463;52.214;21.238;2024-02-15T06:31:47;100922.94;;;7.52;52.44
56582;BME280;42463;52.214;21.238;2024-02-15T06:34:37;100928.96;;;7.51;52.49
56582;BME280;42463;52.214;21.238;2024-02-15T06:37:40;100930.04;;;7.52;52.33
56582;BME280;42463;52.214;21.238;2024-02-15T06:40:30;100935.29;;;7.50;52.46
56582;BME280;42463;52.214;21.238;2024-02-15T06:43:04;100933.72;;;7.49;52.68
56582;BME280;42463;52.214;21.238;2024-02-15T06:45:36;100930.89;;;7.50;52.76
56582;BME280;42463;52.214;21.238;2024-02-15T06:48:11;100934.52;;;7.51;52.75
56582;BME280;42463;52.214;21.238;2024-02-15T06:50:44;100938.75;;;7.53;52.90
56582;BME280;42463;52.214;21.238;2024-02-15T06:53:20;100939.27;;;7.55;52.80
56582;BME280;42463;52.214;21.238;2024-02-15T06:55:53;100938.91;;;7.53;52.95
56582;BME280;42463;52.214;21.238;2024-02-15T06:58:26;100940.35;;;7.51;53.05
56582;BME280;42463;52.214;21.238;2024-02-15T07:00:59;100945.29;;;7.52;53.34
56582;BME280;42463;52.214;21.238;2024-02-15T07:03:32;100945.94;;;7.50;53.58
56582;BME280;42463;52.214;21.238;2024-02-15T07:06:05;100949.98;;;7.46;53.64
56582;BME280;42463;52.214;21.238;2024-02-15T07:08:37;100952.98;;;7.46;53.73
56582;BME280;42463;52.214;21.238;2024-02-15T07:11:11;100953.23;;;7.45;54.02
56582;BME280;42463;52.214;21.238;2024-02-15T07:13:43;100953.81;;;7.45;54.11
56582;BME280;42463;52.214;21.238;2024-02-15T07:16:16;100951.16;;;7.45;54.18
56582;BME280;42463;52.214;21.238;2024-02-15T07:18:48;100953.98;;;7.44;54.46
56582;BME280;42463;52.214;21.238;2024-02-15T07:21:22;100951.74;;;7.44;54.46
56582;BME280;42463;52.214;21.238;2024-02-15T07:23:58;100951.41;;;7.46;54.56
56582;BME280;42463;52.214;21.238;2024-02-15T07:26:31;100952.77;;;7.50;54.63
56582;BME280;42463;52.214;21.238;2024-02-15T07:29:06;100953.77;;;7.50;54.71
56582;BME280;42463;52.214;21.238;2024-02-15T07:31:39;100952.34;;;7.48;54.74
56582;BME280;42463;52.214;21.238;2024-02-15T07:34:11;100953.49;;;7.43;54.88
56582;BME280;42463;52.214;21.238;2024-02-15T07:36:45;100951.04;;;7.44;55.14
56582;BME280;42463;52.214;21.238;2024-02-15T07:39:17;100952.28;;;7.44;55.18
56582;BME280;42463;52.214;21.238;2024-02-15T07:41:54;100953.31;;;7.46;55.43
56582;BME280;42463;52.214;21.238;2024-02-15T07:44:27;100954.23;;;7.49;55.32
56582;BME280;42463;52.214;21.238;2024-02-15T07:47:02;100955.88;;;7.52;55.50
56582;BME280;42463;52.214;21.238;2024-02-15T07:49:35;100947.34;;;7.53;55.55
56582;BME280;42463;52.214;21.238;2024-02-15T07:52:09;100945.00;;;7.51;55.71
56582;BME280;42463;52.214;21.238;2024-02-15T07:54:42;100943.34;;;7.51;55.85
56582;BME280;42463;52.214;21.238;2024-02-15T07:57:14;100946.74;;;7.55;56.15
56582;BME280;42463;52.214;21.238;2024-02-15T07:59:47;100938.38;;;7.57;56.09
56582;BME280;42463;52.214;21.238;2024-02-15T08:02:20;100936.91;;;7.55;56.17
56582;BME280;42463;52.214;21.238;2024-02-15T08:04:54;100940.58;;;7.58;56.31
56582;BME280;42463;52.214;21.238;2024-02-15T08:07:26;100939.95;;;7.62;56.45
56582;BME280;42463;52.214;21.238;2024-02-15T08:10:03;100938.86;;;7.67;56.47
56582;BME280;42463;52.214;21.238;2024-02-15T08:12:38;100942.38;;;7.73;56.69
56582;BME280;42463;52.214;21.238;2024-02-15T08:15:12;100944.13;;;7.77;56.62
56582;BME280;42463;52.214;21.238;2024-02-15T08:17:46;100942.35;;;7.80;56.73
56582;BME280;42463;52.214;21.238;2024-02-15T08:20:18;100945.36;;;7.83;56.98
56582;BME280;42463;52.214;21.238;2024-02-15T08:22:52;100947.91;;;7.85;57.15
56582;BME280;42463;52.214;21.238;2024-02-15T08:25:25;100948.38;;;7.84;57.18
56582;BME280;42463;52.214;21.238;2024-02-15T08:27:58;100951.17;;;7.84;57.46
56582;BME280;42463;52.214;21.238;2024-02-15T08:30:38;100953.85;;;7.82;57.63
56582;BME280;42463;52.214;21.238;2024-02-15T08:33:10;100953.52;;;7.81;57.90
56582;BME280;42463;52.214;21.238;2024-02-15T08:35:43;100954.14;;;7.81;58.14
56582;BME280;42463;52.214;21.238;2024-02-15T08:38:16;100954.95;;;7.79;58.32
56582;BME280;42463;52.214;21.238;2024-02-15T08:40:51;100955.69;;;7.80;58.52
56582;BME280;42463;52.214;21.238;2024-02-15T08:43:42;100952.48;;;7.85;58.52
56582;BME280;42463;52.214;21.238;2024-02-15T08:46:15;100954.91;;;7.88;58.58
56582;BME280;42463;52.214;21.238;2024-02-15T08:48:56;100950.34;;;7.91;58.78
56582;BME280;42463;52.214;21.238;2024-02-15T08:51:29;100950.92;;;7.95;59.15
56582;BME280;42463;52.214;21.238;2024-02-15T08:54:03;100957.96;;;7.98;59.08
56582;BME280;42463;52.214;21.238;2024-02-15T08:56:38;100965.17;;;8.00;59.18
56582;BME280;42463;52.214;21.238;2024-02-15T08:59:14;100966.13;;;8.04;59.32
56582;BME280;42463;52.214;21.238;2024-02-15T09:01:49;100966.04;;;8.04;59.28
56582;BME280;42463;52.214;21.238;2024-02-15T09:04:22;100969.15;;;8.05;59.59
56582;BME280;42463;52.214;21.238;2024-02-15T09:06:57;100967.80;;;8.07;59.56
56582;BME280;42463;52.214;21.238;2024-02-15T09:09:32;100967.66;;;8.08;59.64
56582;BME280;42463;52.214;21.238;2024-02-15T09:12:09;100968.29;;;8.12;59.79
56582;BME280;42463;52.214;21.238;2024-02-15T09:14:42;100967.77;;;8.17;59.83
56582;BME280;42463;52.214;21.238;2024-02-15T09:17:15;100968.30;;;8.22;59.99
56582;BME280;42463;52.214;21.238;2024-02-15T09:19:49;100967.13;;;8.26;60.40
56582;BME280;42463;52.214;21.238;2024-02-15T09:22:22;100969.81;;;8.31;60.53
56582;BME280;42463;52.214;21.238;2024-02-15T09:24:54;100974.71;;;8.28;60.53
56582;BME280;42463;52.214;21.238;2024-02-15T09:27:26;100976.17;;;8.27;60.90
56582;BME280;42463;52.214;21.238;2024-02-15T09:29:59;100980.77;;;8.23;61.19
56582;BME280;42463;52.214;21.238;2024-02-15T09:32:32;100980.11;;;8.18;61.56
56582;BME280;42463;52.214;21.238;2024-02-15T09:35:07;100981.58;;;8.16;61.79
56582;BME280;42463;52.214;21.238;2024-02-15T09:37:45;100976.95;;;8.22;61.91
56582;BME280;42463;52.214;21.238;2024-02-15T09:40:20;100977.01;;;8.27;61.98
56582;BME280;42463;52.214;21.238;2024-02-15T09:42:56;100976.98;;;8.33;61.92
56582;BME280;42463;52.214;21.238;2024-02-15T09:45:31;100978.25;;;8.37;61.92
56582;BME280;42463;52.214;21.238;2024-02-15T09:48:10;100973.73;;;8.37;61.86
56582;BME280;42463;52.214;21.238;2024-02-15T09:50:46;100972.50;;;8.38;62.00
56582;BME280;42463;52.214;21.238;2024-02-15T09:53:23;100970.36;;;8.42;61.95
56582;BME280;42463;52.214;21.238;2024-02-15T09:55:57;100970.66;;;8.49;62.06
56582;BME280;42463;52.214;21.238;2024-02-15T09:58:35;100970.57;;;8.53;61.90
56582;BME280;42463;52.214;21.238;2024-02-15T10:01:10;100972.48;;;8.54;61.81
56582;BME280;42463;52.214;21.238;2024-02-15T10:03:44;100974.42;;;8.54;61.88
56582;BME280;42463;52.214;21.238;2024-02-15T10:06:17;100974.80;;;8.54;61.95
56582;BME280;42463;52.214;21.238;2024-02-15T10:08:50;100978.94;;;8.49;61.87
56582;BME280;42463;52.214;21.238;2024-02-15T10:11:23;100971.78;;;8.46;62.06
56582;BME280;42463;52.214;21.238;2024-02-15T10:14:09;100973.62;;;8.48;62.08
56582;BME280;42463;52.214;21.238;2024-02-15T10:16:42;100973.91;;;8.51;62.24
56582;BME280;42463;52.214;21.238;2024-02-15T10:19:18;100974.57;;;8.55;62.14
56582;BME280;42463;52.214;21.238;2024-02-15T10:21:52;100975.85;;;8.60;62.29
56582;BME280;42463;52.214;21.238;2024-02-15T10:24:27;100972.50;;;8.64;62.22
56582;BME280;42463;52.214;21.238;2024-02-15T10:27:05;100968.08;;;8.62;62.48
56582;BME280;42463;52.214;21.238;2024-02-15T10:29:38;100967.15;;;8.62;62.49
56582;BME280;42463;52.214;21.238;2024-02-15T10:32:11;100967.70;;;8.65;62.72
56582;BME280;42463;52.214;21.238;2024-02-15T10:34:48;100963.76;;;8.65;62.93
56582;BME280;42463;52.214;21.238;2024-02-15T10:37:20;100960.31;;;8.61;63.21
56582;BME280;42463;52.214;21.238;2024-02-15T10:40:05;100958.24;;;8.59;63.34
56582;BME280;42463;52.214;21.238;2024-02-15T10:42:39;100958.25;;;8.59;63.35
56582;BME280;42463;52.214;21.238;2024-02-15T10:45:16;100953.46;;;8.60;63.33
56582;BME280;42463;52.214;21.238;2024-02-15T10:47:50;100953.21;;;8.63;63.92
56582;BME280;42463;52.214;21.238;2024-02-15T10:50:24;100951.77;;;8.68;63.90
56582;BME280;42463;52.214;21.238;2024-02-15T10:52:59;100948.95;;;8.73;63.95
56582;BME280;42463;52.214;21.238;2024-02-15T10:55:40;100945.65;;;8.77;63.66
56582;BME280;42463;52.214;21.238;2024-02-15T10:58:19;100944.17;;;8.82;63.69
56582;BME280;42463;52.214;21.238;2024-02-15T11:00:51;100942.28;;;8.89;63.71
56582;BME280;42463;52.214;21.238;2024-02-15T11:03:28;100942.94;;;8.95;63.57
56582;BME280;42463;52.214;21.238;2024-02-15T11:06:04;100940.07;;;9.00;63.40
56582;BME280;42463;52.214;21.238;2024-02-15T11:08:39;100940.22;;;9.01;63.77
56582;BME280;42463;52.214;21.238;2024-02-15T11:11:13;100938.69;;;9.09;63.51
56582;BME280;42463;52.214;21.238;2024-02-15T11:13:46;100941.06;;;9.17;63.48
56582;BME280;42463;52.214;21.238;2024-02-15T11:16:42;100934.36;;;9.24;63.34
56582;BME280;42463;52.214;21.238;2024-02-15T11:19:44;100930.79;;;9.27;63.03
56582;BME280;42463;52.214;21.238;2024-02-15T11:22:18;100935.73;;;9.31;63.22
56582;BME280;42463;52.214;21.238;2024-02-15T11:24:52;100936.10;;;9.33;63.45
56582;BME280;42463;52.214;21.238;2024-02-15T11:27:31;100933.06;;;9.37;63.18
56582;BME280;42463;52.214;21.238;2024-02-15T11:30:06;100933.85;;;9.40;63.16
56582;BME280;42463;52.214;21.238;2024-02-15T11:32:45;100928.39;;;9.40;63.19
56582;BME280;42463;52.214;21.238;2024-02-15T11:35:21;100929.40;;;9.42;63.03
56582;BME280;42463;52.214;21.238;2024-02-15T11:37:56;100924.17;;;9.43;63.30
56582;BME280;42463;52.214;21.238;2024-02-15T11:41:02;100926.51;;;9.43;63.24
56582;BME280;42463;52.214;21.238;2024-02-15T11:43:54;100923.88;;;9.38;63.48
56582;BME280;42463;52.214;21.238;2024-02-15T11:46:29;100921.63;;;9.38;63.73
56582;BME280;42463;52.214;21.238;2024-02-15T11:49:05;100913.36;;;9.41;63.67
56582;BME280;42463;52.214;21.238;2024-02-15T11:51:38;100909.45;;;9.46;63.77
56582;BME280;42463;52.214;21.238;2024-02-15T11:54:14;100907.45;;;9.54;63.80
56582;BME280;42463;52.214;21.238;2024-02-15T11:56:55;100905.48;;;9.61;63.78
56582;BME280;42463;52.214;21.238;2024-02-15T11:59:44;100906.84;;;9.66;63.64
56582;BME280;42463;52.214;21.238;2024-02-15T12:02:46;100904.65;;;9.72;63.79
56582;BME280;42463;52.214;21.238;2024-02-15T12:05:38;100904.14;;;9.86;63.65
56582;BME280;42463;52.214;21.238;2024-02-15T12:08:29;100906.86;;;9.99;63.45
56582;BME280;42463;52.214;21.238;2024-02-15T12:11:19;100900.77;;;10.05;63.21
56582;BME280;42463;52.214;21.238;2024-02-15T12:14:13;100899.02;;;10.15;63.19
56582;BME280;42463;52.214;21.238;2024-02-15T12:17:06;100899.61;;;10.24;62.97
56582;BME280;42463;52.214;21.238;2024-02-15T12:19:59;100897.48;;;10.26;62.91
56582;BME280;42463;52.214;21.238;2024-02-15T12:22:36;100901.73;;;10.27;62.75
56582;BME280;42463;52.214;21.238;2024-02-15T12:25:16;100898.79;;;10.26;62.95
56582;BME280;42463;52.214;21.238;2024-02-15T12:27:58;100891.76;;;10.24;63.02
56582;BME280;42463;52.214;21.238;2024-02-15T12:30:36;100889.91;;;10.25;63.29
56582;BME280;42463;52.214;21.238;2024-02-15T12:33:15;100893.41;;;10.26;63.06
56582;BME280;42463;52.214;21.238;2024-02-15T12:35:52;100893.05;;;10.24;63.21
56582;BME280;42463;52.214;21.238;2024-02-15T12:38:37;100894.99;;;10.26;63.33
56582;BME280;42463;52.214;21.238;2024-02-15T12:41:24;100894.54;;;10.26;63.23
56582;BME280;42463;52.214;21.238;2024-02-15T12:43:57;100894.16;;;10.23;63.33
56582;BME280;42463;52.214;21.238;2024-02-15T12:46:30;100893.82;;;10.24;63.31
56582;BME280;42463;52.214;21.238;2024-02-15T12:49:30;100895.36;;;10.28;63.15
56582;BME280;42463;52.214;21.238;2024-02-15T12:52:37;100901.96;;;10.28;63.04
56582;BME280;42463;52.214;21.238;2024-02-15T12:55:15;100902.86;;;10.27;62.82
56582;BME280;42463;52.214;21.238;2024-02-15T12:57:51;100903.36;;;10.24;62.84
56582;BME280;42463;52.214;21.238;2024-02-15T13:00:25;100904.15;;;10.26;62.92
56582;BME280;42463;52.214;21.238;2024-02-15T13:03:01;100907.27;;;10.28;62.71
56582;BME280;42463;52.214;21.238;2024-02-15T13:05:37;100906.66;;;10.27;62.68
56582;BME280;42463;52.214;21.238;2024-02-15T13:08:10;100908.14;;;10.28;62.80
56582;BME280;42463;52.214;21.238;2024-02-15T13:10:44;100905.27;;;10.27;62.56
56582;BME280;42463;52.214;21.238;2024-02-15T13:13:17;100899.48;;;10.28;62.68
56582;BME280;42463;52.214;21.238;2024-02-15T13:15:51;100902.46;;;10.31;62.74
56582;BME280;42463;52.214;21.238;2024-02-15T13:18:24;100904.16;;;10.35;62.78
56582;BME280;42463;52.214;21.238;2024-02-15T13:20:58;100902.64;;;10.37;62.67
56582;BME280;42463;52.214;21.238;2024-02-15T13:23:30;100901.80;;;10.38;62.59
56582;BME280;42463;52.214;21.238;2024-02-15T13:26:03;100897.39;;;10.39;62.76
56582;BME280;42463;52.214;21.238;2024-02-15T13:28:36;100893.16;;;10.42;62.70
56582;BME280;42463;52.214;21.238;2024-02-15T13:31:09;100893.66;;;10.45;62.61